createdAt,value
2023-09-27T00:00:11.145Z,7.78
2023-09-27T00:02:43.868Z,7.90
2023-09-27T00:05:13.765Z,7.43
2023-09-27T00:07:43.774Z,7.93
2023-09-27T00:10:13.026Z,7.93
2023-09-27T00:12:43.241Z,10.10
2023-09-27T00:15:13.103Z,9.13
2023-09-27T00:17:43.016Z,9.73
2023-09-27T00:20:17.342Z,9.10
2023-09-27T00:22:46.638Z,11.02
2023-09-27T00:25:15.884Z,10.73
2023-09-27T00:27:46.840Z,11.35
2023-09-27T00:30:16.499Z,11.35
2023-09-27T00:32:46.993Z,12.05
2023-09-27T00:35:20.889Z,11.73
2023-09-27T00:37:50.571Z,11.68
2023-09-27T00:40:22.582Z,12.23
2023-09-27T00:42:52.212Z,11.68
2023-09-27T00:45:21.189Z,12.00
2023-09-27T00:47:51.745Z,11.73
2023-09-27T00:50:20.353Z,11.77
2023-09-27T00:52:50.218Z,10.23
2023-09-27T00:55:21.873Z,11.25
2023-09-27T00:57:55.144Z,11.57
2023-09-27T01:00:24.735Z,11.93
2023-09-27T01:02:54.020Z,11.93
2023-09-27T01:05:23.298Z,11.25
2023-09-27T01:07:52.710Z,10.70
2023-09-27T01:10:21.204Z,11.55
2023-09-27T01:12:51.802Z,12.35
2023-09-27T01:15:21.544Z,12.32
2023-09-27T01:17:57.809Z,11.75
2023-09-27T01:20:26.676Z,12.32
2023-09-27T01:23:00.245Z,14.13
2023-09-27T01:25:30.930Z,14.60
2023-09-27T01:28:00.291Z,14.02
2023-09-27T01:30:33.719Z,12.82
2023-09-27T01:33:06.267Z,13.60
2023-09-27T01:35:35.253Z,12.43
2023-09-27T01:38:06.064Z,11.27
2023-09-27T01:40:37.761Z,11.70
2023-09-27T01:43:06.476Z,10.68
2023-09-27T01:45:35.160Z,11.27
2023-09-27T01:48:05.394Z,11.10
2023-09-27T01:50:35.944Z,11.57
2023-09-27T01:53:06.646Z,10.82
2023-09-27T01:55:35.844Z,12.30
2023-09-27T01:58:05.456Z,10.55
2023-09-27T02:00:34.102Z,12.57
2023-09-27T02:03:04.097Z,13.38
2023-09-27T02:05:33.149Z,12.77
2023-09-27T02:08:02.365Z,12.63
2023-09-27T02:10:32.368Z,14.18
2023-09-27T02:13:00.869Z,15.23
2023-09-27T02:15:29.258Z,14.52
2023-09-27T02:17:57.416Z,15.27
2023-09-27T02:20:26.967Z,13.68
2023-09-27T02:22:57.065Z,13.93
2023-09-27T02:25:26.846Z,12.95
2023-09-27T02:27:56.742Z,13.32
2023-09-27T02:30:24.973Z,13.13
2023-09-27T02:32:54.122Z,12.70
2023-09-27T02:35:23.066Z,11.25
2023-09-27T02:37:51.385Z,11.73
2023-09-27T02:40:20.252Z,11.40
2023-09-27T02:42:49.567Z,12.80
2023-09-27T02:45:19.463Z,11.07
2023-09-27T02:47:48.776Z,10.63
2023-09-27T02:50:17.377Z,10.75
2023-09-27T02:52:46.019Z,11.32
2023-09-27T02:55:16.150Z,12.00
2023-09-27T02:57:50.083Z,11.45
2023-09-27T03:00:20.317Z,10.68
2023-09-27T03:02:49.610Z,12.95
2023-09-27T03:05:19.064Z,11.55
2023-09-27T03:07:47.860Z,13.73
2023-09-27T03:10:17.438Z,13.30
2023-09-27T03:12:48.790Z,12.20
2023-09-27T03:15:17.645Z,13.02
2023-09-27T03:17:47.273Z,11.95
2023-09-27T03:20:20.061Z,12.57
2023-09-27T03:22:48.493Z,11.65
2023-09-27T03:25:19.050Z,10.18
2023-09-27T03:27:48.664Z,12.48
2023-09-27T03:30:19.030Z,14.20
2023-09-27T03:32:49.081Z,14.27
2023-09-27T03:35:18.351Z,14.73
2023-09-27T03:37:48.079Z,11.77
2023-09-27T03:40:16.741Z,12.05
2023-09-27T03:42:47.518Z,11.65
2023-09-27T03:45:18.099Z,12.35
2023-09-27T03:47:49.665Z,14.30
2023-09-27T03:50:23.271Z,15.20
2023-09-27T03:52:51.419Z,14.63
2023-09-27T03:55:19.820Z,13.23
2023-09-27T03:57:48.273Z,15.25
2023-09-27T04:00:19.365Z,15.30
2023-09-27T04:02:50.862Z,15.65
2023-09-27T04:05:23.690Z,14.93
2023-09-27T04:07:52.078Z,15.80
2023-09-27T04:10:20.934Z,17.10
2023-09-27T04:12:49.598Z,15.23
2023-09-27T04:15:18.721Z,18.52
2023-09-27T04:17:46.880Z,18.65
2023-09-27T04:20:18.524Z,19.25
2023-09-27T04:22:48.457Z,18.48
2023-09-27T04:25:17.644Z,17.73
2023-09-27T04:27:47.525Z,19.10
2023-09-27T04:30:16.851Z,18.92
2023-09-27T04:32:46.206Z,19.85
2023-09-27T04:35:16.532Z,20.10
2023-09-27T04:37:44.962Z,19.67
2023-09-27T04:40:15.001Z,20.10
2023-09-27T04:42:45.052Z,21.05
2023-09-27T04:45:14.835Z,20.00
2023-09-27T04:47:46.229Z,19.35
2023-09-27T04:50:17.295Z,18.23
2023-09-27T04:52:46.426Z,17.80
2023-09-27T04:55:16.049Z,16.85
2023-09-27T04:57:44.760Z,17.30
2023-09-27T05:00:20.658Z,17.42
2023-09-27T05:02:50.198Z,17.63
2023-09-27T05:05:20.083Z,16.95
2023-09-27T05:07:49.341Z,15.50
2023-09-27T05:10:18.123Z,15.77
2023-09-27T05:12:46.517Z,15.60
2023-09-27T05:15:14.889Z,15.52
2023-09-27T05:17:43.539Z,15.35
2023-09-27T05:20:13.856Z,14.32
2023-09-27T05:22:44.370Z,16.38
2023-09-27T05:25:13.313Z,16.13
2023-09-27T05:27:41.656Z,16.95
2023-09-27T05:30:11.975Z,17.13
2023-09-27T05:32:40.765Z,17.33
2023-09-27T05:35:11.177Z,19.23
2023-09-27T05:37:40.542Z,19.70
2023-09-27T05:40:12.074Z,18.83
2023-09-27T05:42:40.921Z,18.27
2023-09-27T05:45:11.791Z,18.05
2023-09-27T05:47:40.716Z,15.05
2023-09-27T05:50:10.776Z,14.20
2023-09-27T05:52:39.841Z,13.82
2023-09-27T05:55:10.389Z,12.48
2023-09-27T05:57:39.701Z,11.35
2023-09-27T06:00:16.564Z,10.73
2023-09-27T06:02:45.059Z,9.88
2023-09-27T06:05:13.962Z,10.35
2023-09-27T06:07:42.271Z,9.65
2023-09-27T06:10:11.926Z,9.88
2023-09-27T06:12:40.241Z,8.75
2023-09-27T06:15:10.972Z,9.10
2023-09-27T06:17:39.513Z,9.82
2023-09-27T06:20:13.381Z,9.75
2023-09-27T06:22:42.006Z,9.77
2023-09-27T06:25:14.625Z,11.13
2023-09-27T06:27:44.211Z,10.80
2023-09-27T06:30:13.734Z,11.60
2023-09-27T06:32:42.059Z,14.07
2023-09-27T06:35:14.394Z,12.57
2023-09-27T06:37:45.551Z,11.45
2023-09-27T06:40:17.887Z,11.38
2023-09-27T06:42:47.199Z,12.88
2023-09-27T06:45:16.544Z,11.20
2023-09-27T06:47:47.203Z,10.23
2023-09-27T06:50:17.066Z,10.73
2023-09-27T06:52:46.970Z,9.50
2023-09-27T06:55:18.450Z,9.32
2023-09-27T06:57:50.160Z,8.88
2023-09-27T07:00:20.057Z,9.20
2023-09-27T07:02:49.449Z,10.05
2023-09-27T07:05:20.414Z,8.27
2023-09-27T07:07:48.958Z,6.93
2023-09-27T07:10:18.603Z,7.88
2023-09-27T07:12:47.398Z,8.02
2023-09-27T07:15:15.845Z,7.68
2023-09-27T07:17:46.857Z,7.15
2023-09-27T07:20:25.572Z,8.13
2023-09-27T07:22:55.643Z,7.07
2023-09-27T07:25:25.608Z,6.88
2023-09-27T07:27:54.350Z,8.02
2023-09-27T07:30:25.287Z,7.82
2023-09-27T07:32:54.995Z,8.77
2023-09-27T07:35:25.312Z,8.80
2023-09-27T07:37:53.526Z,7.70
2023-09-27T07:40:21.837Z,8.50
2023-09-27T07:42:52.275Z,7.75
2023-09-27T07:45:23.477Z,8.27
2023-09-27T07:47:53.448Z,7.85
2023-09-27T07:50:22.816Z,7.30
2023-09-27T07:52:51.501Z,7.00
2023-09-27T07:55:22.349Z,9.00
2023-09-27T07:57:53.975Z,9.10
2023-09-27T08:00:29.769Z,7.72
2023-09-27T08:02:59.367Z,7.78
2023-09-27T08:05:28.723Z,7.72
2023-09-27T08:07:57.592Z,8.52
2023-09-27T08:10:26.244Z,9.15
2023-09-27T08:12:56.547Z,8.57
2023-09-27T08:15:24.973Z,8.10
2023-09-27T08:17:53.492Z,8.77
2023-09-27T08:20:21.926Z,7.70
2023-09-27T08:22:50.339Z,6.85
2023-09-27T08:25:18.623Z,6.75
2023-09-27T08:27:51.500Z,7.68
2023-09-27T08:30:22.017Z,7.00
2023-09-27T08:32:51.226Z,7.70
2023-09-27T08:35:19.716Z,7.25
2023-09-27T08:37:48.943Z,7.60
2023-09-27T08:40:18.126Z,7.65
2023-09-27T08:42:51.964Z,8.75
2023-09-27T08:45:24.530Z,6.53
2023-09-27T08:47:53.436Z,7.03
2023-09-27T08:50:23.028Z,7.78
2023-09-27T08:52:52.244Z,11.20
2023-09-27T08:55:21.812Z,10.23
2023-09-27T08:57:53.533Z,10.07
2023-09-27T09:00:28.429Z,10.05
2023-09-27T09:03:00.360Z,10.38
2023-09-27T09:05:30.563Z,10.48
2023-09-27T09:08:00.472Z,10.15
2023-09-27T09:10:29.959Z,10.65
2023-09-27T09:13:00.780Z,10.93
2023-09-27T09:15:37.845Z,10.73
2023-09-27T09:18:10.198Z,10.30
2023-09-27T09:20:51.705Z,10.95
2023-09-27T09:23:34.988Z,11.20
2023-09-27T09:26:06.907Z,10.60
2023-09-27T09:28:37.789Z,10.57
2023-09-27T09:31:24.088Z,10.70
2023-09-27T09:34:05.601Z,11.02
2023-09-27T09:36:34.748Z,10.73
2023-09-27T09:39:07.609Z,10.20
2023-09-27T09:41:48.951Z,11.23
2023-09-27T09:44:22.103Z,10.93
2023-09-27T09:46:53.432Z,10.88
2023-09-27T09:49:22.695Z,10.77
2023-09-27T09:51:54.326Z,10.32
2023-09-27T09:54:52.759Z,10.80
2023-09-27T09:57:49.528Z,10.13
2023-09-27T10:00:26.956Z,11.13
2023-09-27T10:03:03.167Z,10.13
2023-09-27T10:05:37.908Z,10.18
2023-09-27T10:08:07.232Z,10.32
2023-09-27T10:10:36.320Z,12.85
2023-09-27T10:13:07.728Z,12.20
2023-09-27T10:15:36.594Z,11.52
2023-09-27T10:18:37.621Z,13.85
2023-09-27T10:21:09.246Z,12.25
2023-09-27T10:23:43.690Z,11.98
2023-09-27T10:26:24.321Z,12.32
2023-09-27T10:29:17.466Z,12.45
2023-09-27T10:32:22.504Z,11.05
2023-09-27T10:34:54.154Z,11.38
2023-09-27T10:38:00.768Z,11.52
2023-09-27T10:40:29.277Z,11.13
2023-09-27T10:42:57.723Z,12.63
2023-09-27T10:45:26.706Z,13.95
2023-09-27T10:47:56.186Z,12.25
2023-09-27T10:50:31.495Z,11.13
2023-09-27T10:53:01.386Z,11.00
2023-09-27T10:55:39.891Z,10.88
2023-09-27T10:58:08.590Z,11.85
2023-09-27T11:00:37.770Z,9.38
2023-09-27T11:03:18.737Z,11.35
2023-09-27T11:05:49.484Z,10.10
2023-09-27T11:08:23.155Z,9.30
2023-09-27T11:10:53.997Z,9.82
2023-09-27T11:13:22.847Z,9.98
2023-09-27T11:15:52.210Z,9.05
2023-09-27T11:18:20.730Z,10.10
2023-09-27T11:20:50.574Z,9.73
2023-09-27T11:23:25.334Z,9.82
2023-09-27T11:25:53.630Z,8.65
2023-09-27T11:28:21.913Z,9.45
2023-09-27T11:31:00.384Z,9.75
2023-09-27T11:33:35.042Z,9.60
2023-09-27T11:36:08.423Z,9.13
2023-09-27T11:38:36.644Z,8.57
2023-09-27T11:41:09.011Z,7.28
2023-09-27T11:43:37.508Z,7.30
2023-09-27T11:46:05.995Z,8.10
2023-09-27T11:48:36.504Z,7.68
2023-09-27T11:51:05.848Z,7.40
2023-09-27T11:53:35.689Z,6.90
2023-09-27T11:56:03.989Z,6.05
2023-09-27T11:58:32.964Z,6.60
2023-09-27T12:01:01.196Z,6.30
2023-09-27T12:03:29.598Z,6.40
2023-09-27T12:05:58.714Z,6.30
2023-09-27T12:08:27.255Z,5.30
2023-09-27T12:10:57.085Z,6.38
2023-09-27T12:13:26.045Z,5.72
2023-09-27T12:15:54.418Z,5.90
2023-09-27T12:18:22.980Z,6.28
2023-09-27T12:20:52.052Z,5.00
2023-09-27T12:23:20.976Z,5.07
2023-09-27T12:25:49.237Z,5.20
2023-09-27T12:28:19.712Z,5.47
2023-09-27T12:30:48.367Z,4.68
2023-09-27T12:33:19.272Z,5.57
2023-09-27T12:35:51.063Z,6.32
2023-09-27T12:38:19.773Z,5.90
2023-09-27T12:40:48.040Z,4.88
2023-09-27T12:43:16.214Z,4.55
2023-09-27T12:45:45.952Z,4.78
2023-09-27T12:48:14.314Z,5.95
2023-09-27T12:50:42.909Z,6.07
2023-09-27T12:53:11.768Z,5.13
2023-09-27T12:55:43.282Z,5.03
2023-09-27T12:58:12.608Z,5.15
2023-09-27T13:00:41.266Z,3.83
2023-09-27T13:03:11.917Z,4.78
2023-09-27T13:05:41.449Z,4.50
2023-09-27T13:08:10.159Z,4.15
2023-09-27T13:10:40.326Z,3.50
2023-09-27T13:13:11.007Z,3.45
2023-09-27T13:15:39.783Z,4.13
2023-09-27T13:18:09.358Z,3.70
2023-09-27T13:20:39.259Z,3.67
2023-09-27T13:23:07.665Z,2.88
2023-09-27T13:25:36.236Z,3.13
2023-09-27T13:28:04.842Z,8.13
2023-09-27T13:30:36.584Z,3.40
2023-09-27T13:33:05.810Z,3.80
2023-09-27T13:35:36.613Z,3.72
2023-09-27T13:38:11.922Z,3.55
2023-09-27T13:40:40.680Z,3.88
2023-09-27T13:43:08.903Z,3.17
2023-09-27T13:45:37.512Z,3.00
2023-09-27T13:48:07.570Z,2.25
2023-09-27T13:50:37.148Z,2.90
2023-09-27T13:53:06.098Z,2.45
2023-09-27T13:55:36.056Z,2.58
2023-09-27T13:58:04.399Z,2.80
2023-09-27T14:00:32.697Z,2.50
2023-09-27T14:03:01.599Z,2.30
2023-09-27T14:05:30.224Z,2.53
2023-09-27T14:07:58.517Z,2.30
2023-09-27T14:10:26.850Z,2.53
2023-09-27T14:12:57.453Z,3.00
2023-09-27T14:15:26.474Z,2.40
2023-09-27T14:17:54.834Z,1.98
2023-09-27T14:20:23.770Z,2.30
2023-09-27T14:22:53.561Z,2.10
2023-09-27T14:25:22.388Z,2.17
2023-09-27T14:27:50.841Z,2.22
2023-09-27T14:30:21.440Z,2.05
2023-09-27T14:32:50.256Z,2.13
2023-09-27T14:35:18.816Z,2.63
2023-09-27T14:37:47.131Z,2.20
2023-09-27T14:40:15.850Z,1.92
2023-09-27T14:42:44.320Z,2.22
2023-09-27T14:45:24.336Z,1.92
2023-09-27T14:48:02.786Z,2.00
2023-09-27T14:50:31.242Z,1.80
2023-09-27T14:52:59.682Z,1.50
2023-09-27T14:55:28.651Z,2.35
2023-09-27T14:57:58.130Z,1.90
2023-09-27T15:00:26.911Z,1.70
2023-09-27T15:02:56.334Z,1.88
2023-09-27T15:05:26.428Z,1.63
2023-09-27T15:07:54.773Z,3.70
2023-09-27T15:10:24.424Z,2.13
2023-09-27T15:12:53.019Z,1.98
2023-09-27T15:15:21.516Z,1.67
2023-09-27T15:17:50.055Z,2.63
2023-09-27T15:20:18.631Z,7.93
2023-09-27T15:22:48.417Z,1.92
2023-09-27T15:25:17.505Z,5.70
2023-09-27T15:27:46.350Z,3.50
2023-09-27T15:30:14.905Z,2.13
2023-09-27T15:32:47.505Z,2.40
2023-09-27T15:35:17.118Z,2.28
2023-09-27T15:37:57.664Z,1.90
2023-09-27T15:40:26.096Z,1.65
2023-09-27T15:42:55.152Z,1.75
2023-09-27T15:45:24.624Z,1.35
2023-09-27T15:47:54.164Z,1.73
2023-09-27T15:50:22.976Z,1.98
2023-09-27T15:52:52.333Z,1.70
2023-09-27T15:55:22.607Z,1.88
2023-09-27T15:57:50.986Z,1.85
2023-09-27T16:00:19.413Z,1.80
2023-09-27T16:02:47.983Z,1.67
2023-09-27T16:05:25.035Z,1.70
2023-09-27T16:07:53.597Z,2.17
2023-09-27T16:10:24.474Z,1.70
2023-09-27T16:12:53.002Z,2.15
2023-09-27T16:15:22.168Z,1.60
2023-09-27T16:17:51.300Z,1.67
2023-09-27T16:20:19.541Z,1.58
2023-09-27T16:22:47.869Z,1.60
2023-09-27T16:25:16.126Z,1.55
2023-09-27T16:27:45.839Z,1.45
2023-09-27T16:30:15.101Z,1.60
2023-09-27T16:32:43.954Z,1.40
2023-09-27T16:35:12.959Z,1.80
2023-09-27T16:37:41.524Z,1.55
2023-09-27T16:40:11.533Z,2.03
2023-09-27T16:42:39.880Z,1.70
2023-09-27T16:45:11.316Z,1.75
2023-09-27T16:47:40.690Z,1.98
2023-09-27T16:50:11.353Z,1.88
2023-09-27T16:52:39.708Z,1.92
2023-09-27T16:55:08.671Z,2.55
2023-09-27T16:57:39.730Z,3.10
2023-09-27T17:00:12.336Z,2.05
2023-09-27T17:02:40.981Z,2.13
2023-09-27T17:05:10.206Z,2.08
2023-09-27T17:07:38.775Z,2.50
2023-09-27T17:10:10.383Z,2.60
2023-09-27T17:12:39.890Z,2.30
2023-09-27T17:15:11.535Z,2.40
2023-09-27T17:17:39.835Z,2.72
2023-09-27T17:20:11.645Z,3.58
2023-09-27T17:22:40.454Z,3.10
2023-09-27T17:25:10.854Z,2.70
2023-09-27T17:27:39.199Z,3.08
2023-09-27T17:30:10.854Z,2.42
2023-09-27T17:32:39.725Z,3.08
2023-09-27T17:35:09.112Z,3.10
2023-09-27T17:37:37.683Z,2.60
2023-09-27T17:40:09.073Z,2.70
2023-09-27T17:42:39.480Z,3.10
2023-09-27T17:45:10.437Z,4.35
2023-09-27T17:47:38.976Z,5.22
2023-09-27T17:50:08.115Z,3.83
2023-09-27T17:52:36.933Z,3.60
2023-09-27T17:55:05.830Z,3.58
2023-09-27T17:57:34.364Z,3.33
2023-09-27T18:00:02.813Z,3.50
2023-09-27T18:02:34.846Z,4.65
2023-09-27T18:05:03.789Z,4.10
2023-09-27T18:07:32.470Z,3.88
2023-09-27T18:10:00.728Z,4.65
2023-09-27T18:12:28.946Z,4.65
2023-09-27T18:14:57.212Z,4.55
2023-09-27T18:17:25.974Z,4.75
2023-09-27T18:19:56.232Z,4.18
2023-09-27T18:22:24.765Z,5.28
2023-09-27T18:24:53.335Z,5.15
2023-09-27T18:27:22.953Z,4.95
2023-09-27T18:29:51.119Z,4.30
2023-09-27T18:32:19.739Z,4.75
2023-09-27T18:34:48.041Z,5.00
2023-09-27T18:37:17.589Z,4.80
2023-09-27T18:39:45.992Z,4.90
2023-09-27T18:42:16.852Z,5.03
2023-09-27T18:44:45.679Z,4.85
2023-09-27T18:47:14.126Z,4.85
2023-09-27T18:49:42.688Z,5.60
2023-09-27T18:52:11.010Z,5.50
2023-09-27T18:54:40.881Z,6.90
2023-09-27T18:57:09.321Z,7.07
2023-09-27T18:59:37.649Z,6.68
2023-09-27T19:02:06.133Z,7.07
2023-09-27T19:04:34.623Z,9.05
2023-09-27T19:07:03.208Z,7.18
2023-09-27T19:09:31.619Z,7.40
2023-09-27T19:12:01.676Z,6.90
2023-09-27T19:14:30.116Z,5.95
2023-09-27T19:16:58.491Z,6.00
2023-09-27T19:19:27.458Z,8.05
2023-09-27T19:21:56.007Z,7.10
2023-09-27T19:24:24.426Z,8.63
2023-09-27T19:26:52.883Z,7.38
2023-09-27T19:29:22.676Z,8.57
2023-09-27T19:31:51.632Z,9.52
2023-09-27T19:34:20.565Z,8.25
2023-09-27T19:36:49.277Z,7.97
2023-09-27T19:39:18.101Z,10.35
2023-09-27T19:41:47.076Z,11.20
2023-09-27T19:44:15.794Z,8.13
2023-09-27T19:46:46.449Z,7.65
2023-09-27T19:49:14.840Z,9.48
2023-09-27T19:51:43.391Z,6.85
2023-09-27T19:54:11.923Z,9.50
2023-09-27T19:56:43.137Z,6.78
2023-09-27T19:59:11.558Z,9.57
2023-09-27T20:01:40.392Z,7.18
2023-09-27T20:04:10.624Z,9.27
2023-09-27T20:06:40.319Z,7.72
2023-09-27T20:09:10.546Z,7.72
2023-09-27T20:11:39.484Z,7.50
2023-09-27T20:14:08.087Z,8.48
2023-09-27T20:16:36.768Z,7.38
2023-09-27T20:19:05.847Z,7.75
2023-09-27T20:21:36.523Z,11.57
2023-09-27T20:24:05.534Z,10.88
2023-09-27T20:26:35.163Z,10.30
2023-09-27T20:29:03.383Z,8.95
2023-09-27T20:31:34.106Z,10.57
2023-09-27T20:34:02.616Z,9.63
2023-09-27T20:36:30.909Z,9.20
2023-09-27T20:39:01.781Z,8.18
2023-09-27T20:41:30.114Z,8.30
2023-09-27T20:43:58.340Z,7.15
2023-09-27T20:46:26.626Z,6.40
2023-09-27T20:48:56.510Z,7.57
2023-09-27T20:51:24.734Z,6.50
2023-09-27T20:53:53.027Z,6.75
2023-09-27T20:56:22.835Z,6.90
2023-09-27T20:58:51.078Z,6.75
2023-09-27T21:01:39.917Z,6.85
2023-09-27T21:04:08.968Z,8.77
2023-09-27T21:06:37.558Z,8.57
2023-09-27T21:09:06.039Z,8.10
2023-09-27T21:11:36.225Z,9.82
2023-09-27T21:14:05.410Z,9.80
2023-09-27T21:16:34.797Z,8.35
2023-09-27T21:19:03.442Z,7.38
2023-09-27T21:21:32.993Z,7.95
2023-09-27T21:24:01.744Z,11.40
2023-09-27T21:26:30.035Z,8.95
2023-09-27T21:29:00.013Z,9.07
2023-09-27T21:31:28.440Z,9.07
2023-09-27T21:33:57.092Z,12.80
2023-09-27T21:36:25.410Z,8.75
2023-09-27T21:38:53.803Z,9.68
2023-09-27T21:41:22.091Z,9.52
2023-09-27T21:43:50.625Z,9.68
2023-09-27T21:46:21.200Z,11.05
2023-09-27T21:48:49.952Z,10.50
2023-09-27T21:51:19.259Z,12.57
2023-09-27T21:53:47.582Z,10.27
2023-09-27T21:56:16.134Z,9.85
2023-09-27T21:58:44.718Z,8.55
2023-09-27T22:01:13.954Z,8.75
2023-09-27T22:03:44.061Z,8.90
2023-09-27T22:06:14.238Z,8.82
2023-09-27T22:08:49.485Z,8.00
2023-09-27T22:11:18.422Z,8.38
2023-09-27T22:13:49.082Z,8.15
2023-09-27T22:16:17.590Z,8.40
2023-09-27T22:18:50.605Z,9.85
2023-09-27T22:21:27.759Z,9.98
2023-09-27T22:23:57.252Z,8.85
2023-09-27T22:26:26.764Z,8.57
2023-09-27T22:28:57.043Z,9.63
2023-09-27T22:31:31.962Z,10.27
2023-09-27T22:36:42.483Z,8.18
2023-09-27T22:39:16.199Z,9.45
2023-09-27T22:41:46.671Z,10.05
2023-09-27T22:44:21.782Z,11.20
2023-09-27T22:46:52.107Z,9.35
2023-09-27T22:49:23.299Z,9.10
2023-09-27T22:51:52.249Z,9.75
2023-09-27T22:54:22.714Z,10.93
2023-09-27T22:56:53.597Z,10.13
2023-09-27T22:59:22.710Z,12.43
2023-09-27T23:01:56.070Z,9.80
2023-09-27T23:04:26.187Z,9.70
2023-09-27T23:07:04.787Z,11.55
2023-09-27T23:09:37.009Z,10.07
2023-09-27T23:12:19.815Z,10.20
2023-09-27T23:15:06.712Z,9.10
2023-09-27T23:17:57.177Z,9.30
2023-09-27T23:20:30.564Z,7.97
2023-09-27T23:22:59.706Z,8.00
2023-09-27T23:25:40.351Z,8.85
2023-09-27T23:28:08.756Z,11.38
2023-09-27T23:30:35.963Z,9.80
2023-09-27T23:33:04.500Z,9.70
2023-09-27T23:35:33.236Z,8.90
2023-09-27T23:38:10.954Z,10.73
2023-09-27T23:40:42.609Z,10.32
2023-09-27T23:43:17.087Z,9.13
2023-09-27T23:45:46.821Z,10.13
2023-09-27T23:48:15.649Z,9.68
2023-09-27T23:50:45.307Z,8.82
2023-09-27T23:53:13.645Z,8.70
2023-09-27T23:55:43.034Z,9.85
2023-09-27T23:58:14.039Z,9.60
